Time;durP1;ratioP1;P1;durP2;ratioP2;P2;SDS_P1;SDS_P2;PMS_P1;PMS_P2;Temp;Humidity;BMP_temperature;BMP_pressure;BME280_temperature;BME280_humidity;BME280_pressure;Samples;Min_cycle;Max_cycle;Signal;HPM_P1;HPM_P2
2022/03/22 00:01:26;;;;;;;13.33;9.10;;;;;;;;;;5063698;28;20208;-78
2022/03/22 00:03:53;;;;;;;11.77;9.47;;;;;;;;;;5061381;28;20656;-77
2022/03/22 00:06:19;;;;;;;15.87;10.33;;;;;;;;;;5065187;28;20196;-78
2022/03/22 00:08:45;;;;;;;13.37;9.93;;;;;;;;;;5064649;28;20201;-77
2022/03/22 00:11:12;;;;;;;16.90;9.93;;;;;;;;;;5066937;28;20215;-77
2022/03/22 00:13:44;;;;;;;14.30;10.13;;;;;;;;;;5066159;28;20182;-78
2022/03/22 00:16:12;;;;;;;14.10;9.37;;;;;;;;;;5062095;28;20180;-78
2022/03/22 00:18:38;;;;;;;13.90;9.33;;;;;;;;;;5084922;28;20173;-78
2022/03/22 00:21:06;;;;;;;14.90;9.90;;;;;;;;;;5070074;28;20184;-77
2022/03/22 00:23:33;;;;;;;12.27;8.70;;;;;;;;;;5069952;28;20264;-78
2022/03/22 00:25:59;;;;;;;14.77;9.90;;;;;;;;;;5067703;28;20188;-78
2022/03/22 00:28:26;;;;;;;14.67;9.83;;;;;;;;;;5062903;28;20422;-78
2022/03/22 00:30:54;;;;;;;14.60;10.17;;;;;;;;;;5079166;28;20738;-78
2022/03/22 00:33:21;;;;;;;12.77;9.60;;;;;;;;;;5062686;28;20303;-77
2022/03/22 00:35:49;;;;;;;12.70;9.00;;;;;;;;;;5068045;28;20557;-77
2022/03/22 00:38:20;;;;;;;15.17;9.67;;;;;;;;;;5064968;28;20281;-77
2022/03/22 00:40:47;;;;;;;16.50;10.47;;;;;;;;;;5066382;28;20255;-77
2022/03/22 00:43:13;;;;;;;12.90;9.63;;;;;;;;;;5061907;28;20258;-77
2022/03/22 00:45:40;;;;;;;13.30;10.17;;;;;;;;;;5062375;28;20205;-78
2022/03/22 00:48:07;;;;;;;14.47;10.53;;;;;;;;;;5066109;28;20196;-78
2022/03/22 00:50:35;;;;;;;15.63;11.57;;;;;;;;;;5068385;28;20201;-77
2022/03/22 00:53:01;;;;;;;14.03;10.93;;;;;;;;;;5049593;28;20844;-77
2022/03/22 00:55:27;;;;;;;15.93;10.80;;;;;;;;;;5050489;28;20189;-77
2022/03/22 00:57:55;;;;;;;18.80;12.20;;;;;;;;;;5068792;28;20181;-77
2022/03/22 01:00:24;;;;;;;16.37;12.50;;;;;;;;;;5060644;28;20583;-78
2022/03/22 01:02:51;;;;;;;17.10;12.07;;;;;;;;;;5065649;28;20204;-77
2022/03/22 01:05:19;;;;;;;17.43;12.50;;;;;;;;;;5065102;28;20249;-77
2022/03/22 01:07:51;;;;;;;15.77;11.50;;;;;;;;;;5065034;28;20212;-77
2022/03/22 01:10:19;;;;;;;16.77;12.07;;;;;;;;;;5067545;28;20201;-78
2022/03/22 01:12:46;;;;;;;15.87;11.47;;;;;;;;;;5064089;28;20204;-77
2022/03/22 01:15:15;;;;;;;16.03;11.57;;;;;;;;;;5043054;28;20657;-77
2022/03/22 01:17:44;;;;;;;16.20;10.40;;;;;;;;;;5067538;28;20627;-77
2022/03/22 01:20:11;;;;;;;15.80;11.43;;;;;;;;;;5064527;28;20208;-77
2022/03/22 01:22:39;;;;;;;15.77;11.87;;;;;;;;;;5064417;28;20286;-78
2022/03/22 01:25:14;;;;;;;13.90;10.20;;;;;;;;;;5045697;28;20185;-77
2022/03/22 01:27:41;;;;;;;13.90;10.63;;;;;;;;;;5058774;28;20192;-78
2022/03/22 01:30:08;;;;;;;17.00;12.63;;;;;;;;;;5047929;28;20221;-78
2022/03/22 01:32:35;;;;;;;15.57;12.27;;;;;;;;;;5062391;28;20250;-78
2022/03/22 01:35:02;;;;;;;15.07;11.57;;;;;;;;;;5060571;28;20362;-78
2022/03/22 01:37:28;;;;;;;13.30;11.00;;;;;;;;;;5054893;28;20192;-77
2022/03/22 01:39:54;;;;;;;14.87;10.77;;;;;;;;;;5064304;28;20193;-77
2022/03/22 01:42:21;;;;;;;14.47;10.77;;;;;;;;;;5064360;28;20216;-77
2022/03/22 01:44:48;;;;;;;14.03;10.53;;;;;;;;;;5062770;28;20189;-77
2022/03/22 01:47:16;;;;;;;14.93;11.43;;;;;;;;;;5056263;28;20686;-77
2022/03/22 01:49:43;;;;;;;16.40;11.77;;;;;;;;;;5068156;28;20247;-77
2022/03/22 01:52:13;;;;;;;16.57;11.03;;;;;;;;;;5061850;28;20622;-77
2022/03/22 01:54:40;;;;;;;14.27;10.47;;;;;;;;;;5054578;28;20212;-78
2022/03/22 01:57:07;;;;;;;15.10;11.17;;;;;;;;;;5065079;28;20228;-77
2022/03/22 01:59:33;;;;;;;18.17;12.03;;;;;;;;;;5067819;28;20198;-77
2022/03/22 02:07:38;;;;;;;13.77;10.03;;;;;;;;;;5058575;28;20679;-77
2022/03/22 02:10:04;;;;;;;14.83;9.97;;;;;;;;;;5063398;28;20288;-77
2022/03/22 02:12:31;;;;;;;15.87;10.30;;;;;;;;;;5061023;28;20292;-77
2022/03/22 02:14:58;;;;;;;14.03;10.30;;;;;;;;;;5059211;28;20189;-77
2022/03/22 02:17:24;;;;;;;13.63;9.03;;;;;;;;;;5063562;28;21043;-78
2022/03/22 02:19:51;;;;;;;16.07;11.00;;;;;;;;;;5063343;28;20169;-77
2022/03/22 02:22:19;;;;;;;18.33;12.33;;;;;;;;;;5065630;28;20208;-77
2022/03/22 02:24:45;;;;;;;16.87;12.93;;;;;;;;;;5064855;28;20188;-77
2022/03/22 02:27:12;;;;;;;17.67;12.30;;;;;;;;;;5065537;28;20193;-77
2022/03/22 02:29:38;;;;;;;19.60;12.47;;;;;;;;;;5063525;28;20286;-78
2022/03/22 02:32:04;;;;;;;17.70;11.90;;;;;;;;;;5052333;28;20203;-77
2022/03/22 02:34:31;;;;;;;16.23;11.63;;;;;;;;;;5074951;28;20181;-77
2022/03/22 02:36:58;;;;;;;28.53;12.60;;;;;;;;;;5065527;28;20208;-77
2022/03/22 02:39:24;;;;;;;19.77;13.47;;;;;;;;;;5068341;28;20173;-77
2022/03/22 02:41:51;;;;;;;18.97;12.47;;;;;;;;;;5055314;28;20216;-77
2022/03/22 02:44:19;;;;;;;18.27;13.33;;;;;;;;;;5057339;28;20199;-77
2022/03/22 02:46:47;;;;;;;19.87;13.23;;;;;;;;;;5061685;28;20182;-77
2022/03/22 02:49:14;;;;;;;18.20;12.27;;;;;;;;;;5062954;28;20303;-78
2022/03/22 02:51:41;;;;;;;18.40;12.27;;;;;;;;;;5058504;28;20225;-77
2022/03/22 02:54:07;;;;;;;17.47;12.57;;;;;;;;;;5062615;28;20890;-77
2022/03/22 02:56:33;;;;;;;17.80;13.27;;;;;;;;;;5067259;28;20219;-77
2022/03/22 02:59:00;;;;;;;20.33;13.47;;;;;;;;;;5066080;28;20193;-77
2022/03/22 03:01:26;;;;;;;19.10;14.20;;;;;;;;;;5067002;28;20208;-77
2022/03/22 03:03:52;;;;;;;20.80;13.63;;;;;;;;;;5066003;28;20185;-77
2022/03/22 03:06:19;;;;;;;17.70;13.03;;;;;;;;;;5066286;28;20197;-78
2022/03/22 03:08:45;;;;;;;18.23;13.33;;;;;;;;;;5068912;28;20182;-77
2022/03/22 03:11:12;;;;;;;17.53;12.67;;;;;;;;;;5066548;28;20244;-77
2022/03/22 03:16:24;;;;;;;20.33;13.60;;;;;;;;;;5064493;28;20177;-77
2022/03/22 03:18:51;;;;;;;19.60;13.80;;;;;;;;;;5062458;28;20559;-77
2022/03/22 03:21:17;;;;;;;20.70;14.03;;;;;;;;;;5063856;28;20193;-78
2022/03/22 03:23:43;;;;;;;18.13;13.80;;;;;;;;;;5068911;28;20306;-77
2022/03/22 03:26:09;;;;;;;20.10;12.77;;;;;;;;;;5065156;28;20185;-78
2022/03/22 03:28:36;;;;;;;18.07;12.70;;;;;;;;;;5068240;28;20196;-77
2022/03/22 03:31:02;;;;;;;15.87;11.03;;;;;;;;;;5068027;28;20212;-77
2022/03/22 03:33:28;;;;;;;20.57;12.90;;;;;;;;;;5065744;28;20194;-78
2022/03/22 03:35:54;;;;;;;17.03;11.60;;;;;;;;;;5061277;28;20598;-77
2022/03/22 03:38:20;;;;;;;17.33;11.20;;;;;;;;;;5061683;28;20192;-77
2022/03/22 03:43:31;;;;;;;16.83;12.90;;;;;;;;;;5062529;28;20209;-77
2022/03/22 03:48:42;;;;;;;20.17;12.60;;;;;;;;;;5066676;28;20223;-77
2022/03/22 03:51:08;;;;;;;20.23;13.43;;;;;;;;;;5064225;28;20212;-77
2022/03/22 03:53:34;;;;;;;18.37;13.17;;;;;;;;;;5068804;28;20876;-77
2022/03/22 03:56:01;;;;;;;19.07;13.77;;;;;;;;;;5061169;28;20189;-78
2022/03/22 03:58:27;;;;;;;20.47;13.57;;;;;;;;;;5059153;28;20688;-78
2022/03/22 04:00:53;;;;;;;17.87;11.93;;;;;;;;;;5069745;28;20193;-77
2022/03/22 04:03:19;;;;;;;16.90;12.10;;;;;;;;;;5065907;28;20688;-78
2022/03/22 04:05:45;;;;;;;17.80;11.57;;;;;;;;;;5066915;28;20184;-79
2022/03/22 04:08:30;;;;;;;18.03;12.47;;;;;;;;;;5069356;28;20200;-77
2022/03/22 04:10:56;;;;;;;17.47;12.20;;;;;;;;;;5066147;28;20220;-77
2022/03/22 04:13:22;;;;;;;16.10;11.53;;;;;;;;;;5065497;28;20216;-77
2022/03/22 04:15:49;;;;;;;17.83;11.77;;;;;;;;;;5061085;28;20204;-77
2022/03/22 04:18:16;;;;;;;17.47;11.17;;;;;;;;;;5066813;28;20192;-77
2022/03/22 04:20:43;;;;;;;16.13;11.10;;;;;;;;;;5067844;28;20177;-77
2022/03/22 04:23:09;;;;;;;15.73;11.07;;;;;;;;;;5064907;28;20756;-77
2022/03/22 04:25:35;;;;;;;15.20;11.13;;;;;;;;;;5068005;28;20193;-77
2022/03/22 04:33:33;;;;;;;18.20;11.17;;;;;;;;;;5068091;28;20208;-77
2022/03/22 04:36:00;;;;;;;16.53;10.90;;;;;;;;;;5064427;28;20222;-78
2022/03/22 04:38:26;;;;;;;17.57;11.90;;;;;;;;;;5065748;28;20208;-77
2022/03/22 04:40:53;;;;;;;16.50;12.53;;;;;;;;;;5066791;28;20543;-77
2022/03/22 04:43:19;;;;;;;17.83;12.30;;;;;;;;;;5061708;28;20224;-77
2022/03/22 04:45:45;;;;;;;17.57;12.43;;;;;;;;;;5067093;28;20238;-77
2022/03/22 04:48:12;;;;;;;19.27;12.23;;;;;;;;;;5059499;28;20193;-77
2022/03/22 04:50:38;;;;;;;17.43;12.53;;;;;;;;;;5067430;28;20201;-77
2022/03/22 04:58:34;;;;;;;19.27;12.73;;;;;;;;;;5064299;28;20188;-77
2022/03/22 05:01:00;;;;;;;15.97;11.90;;;;;;;;;;5058913;28;20201;-77
2022/03/22 05:03:27;;;;;;;17.93;12.97;;;;;;;;;;5067438;28;20201;-78
2022/03/22 05:08:37;;;;;;;19.33;13.23;;;;;;;;;;5066977;28;20231;-77
2022/03/22 05:11:03;;;;;;;17.33;12.23;;;;;;;;;;5067501;28;20218;-77
2022/03/22 05:13:30;;;;;;;19.47;13.43;;;;;;;;;;5065028;28;20299;-77
2022/03/22 05:15:56;;;;;;;21.47;14.60;;;;;;;;;;5067327;28;20223;-77
2022/03/22 05:18:23;;;;;;;19.07;12.63;;;;;;;;;;5067287;28;20184;-77
2022/03/22 05:20:49;;;;;;;18.40;12.60;;;;;;;;;;5064512;28;20185;-77
2022/03/22 05:23:17;;;;;;;20.70;14.07;;;;;;;;;;5065851;28;20220;-77
2022/03/22 05:25:43;;;;;;;17.93;13.50;;;;;;;;;;5067395;28;20188;-77
2022/03/22 05:28:09;;;;;;;19.13;12.63;;;;;;;;;;5067112;28;20181;-77
2022/03/22 05:30:36;;;;;;;20.90;13.30;;;;;;;;;;5067043;28;20209;-77
2022/03/22 05:33:02;;;;;;;20.20;13.40;;;;;;;;;;5065685;28;20295;-77
2022/03/22 05:35:28;;;;;;;18.23;13.67;;;;;;;;;;5060970;28;20180;-77
2022/03/22 05:37:54;;;;;;;20.43;14.50;;;;;;;;;;5066371;28;20600;-77
2022/03/22 05:40:21;;;;;;;20.20;13.77;;;;;;;;;;5066898;28;20181;-77
2022/03/22 05:42:47;;;;;;;23.20;14.97;;;;;;;;;;5077103;28;20676;-76
2022/03/22 05:45:15;;;;;;;19.93;13.47;;;;;;;;;;5065439;28;20297;-77
2022/03/22 05:47:41;;;;;;;19.60;13.90;;;;;;;;;;5062801;28;20238;-77
2022/03/22 05:50:08;;;;;;;21.27;14.33;;;;;;;;;;5062633;28;20213;-77
2022/03/22 05:52:34;;;;;;;21.83;14.70;;;;;;;;;;5065850;28;20197;-77
2022/03/22 05:55:00;;;;;;;19.07;13.80;;;;;;;;;;5064785;28;20196;-77
2022/03/22 05:57:27;;;;;;;17.80;13.20;;;;;;;;;;5058970;28;20212;-77
2022/03/22 05:59:53;;;;;;;17.50;13.10;;;;;;;;;;5060908;28;20181;-77
2022/03/22 06:02:19;;;;;;;20.47;13.93;;;;;;;;;;5064129;28;20707;-77
2022/03/22 06:04:49;;;;;;;18.30;12.97;;;;;;;;;;5064371;28;20223;-77
2022/03/22 06:07:18;;;;;;;18.13;13.20;;;;;;;;;;5062588;28;20193;-78
2022/03/22 06:09:45;;;;;;;20.67;13.63;;;;;;;;;;5057580;28;20213;-79
2022/03/22 06:12:11;;;;;;;20.43;14.10;;;;;;;;;;5067288;28;20251;-82
2022/03/22 06:14:37;;;;;;;23.03;15.90;;;;;;;;;;5071107;28;20923;-81
2022/03/22 06:17:03;;;;;;;22.17;15.63;;;;;;;;;;5075858;28;20189;-81
2022/03/22 06:19:29;;;;;;;20.90;15.57;;;;;;;;;;5047792;28;20188;-77
2022/03/22 06:21:55;;;;;;;23.43;14.67;;;;;;;;;;5085242;28;20205;-85
2022/03/22 06:24:21;;;;;;;21.47;14.80;;;;;;;;;;5068262;28;20193;-80
2022/03/22 06:26:47;;;;;;;22.07;14.13;;;;;;;;;;5069561;28;20239;-79
2022/03/22 06:29:14;;;;;;;20.47;14.03;;;;;;;;;;5072904;28;20189;-81
2022/03/22 06:31:40;;;;;;;24.80;15.07;;;;;;;;;;5062281;28;20233;-80
2022/03/22 06:34:06;;;;;;;20.53;14.27;;;;;;;;;;5056373;28;20189;-79
2022/03/22 06:36:32;;;;;;;22.97;14.77;;;;;;;;;;5070108;28;20178;-79
2022/03/22 06:38:59;;;;;;;21.73;15.17;;;;;;;;;;5071318;28;20193;-79
2022/03/22 06:41:25;;;;;;;23.93;15.27;;;;;;;;;;5069571;28;20193;-82
2022/03/22 06:43:51;;;;;;;22.67;15.10;;;;;;;;;;5070443;28;20660;-79
2022/03/22 06:46:18;;;;;;;21.23;15.30;;;;;;;;;;5073572;28;20196;-86
2022/03/22 06:48:44;;;;;;;20.33;14.83;;;;;;;;;;5071216;28;20665;-83
2022/03/22 06:51:10;;;;;;;22.23;15.40;;;;;;;;;;5073311;28;20250;-84
2022/03/22 06:53:37;;;;;;;23.23;15.40;;;;;;;;;;5068760;28;20196;-85
2022/03/22 06:56:04;;;;;;;21.70;15.33;;;;;;;;;;5054464;28;20250;-83
2022/03/22 06:58:31;;;;;;;20.53;15.20;;;;;;;;;;5076671;28;20229;-83
2022/03/22 07:00:58;;;;;;;21.07;14.33;;;;;;;;;;5060347;28;20895;-82
2022/03/22 07:03:28;;;;;;;21.47;15.57;;;;;;;;;;5055890;28;20319;-83
2022/03/22 07:05:58;;;;;;;18.47;14.03;;;;;;;;;;5047294;28;20189;-83
2022/03/22 07:08:35;;;;;;;22.00;14.67;;;;;;;;;;5045121;28;20181;-83
2022/03/22 07:13:47;;;;;;;21.00;15.07;;;;;;;;;;5062038;28;20181;-84
2022/03/22 07:16:13;;;;;;;25.13;15.80;;;;;;;;;;5062312;28;20204;-84
2022/03/22 07:18:39;;;;;;;21.60;15.70;;;;;;;;;;5063745;28;20609;-84
2022/03/22 07:21:05;;;;;;;23.40;17.27;;;;;;;;;;5062429;28;20186;-84
2022/03/22 07:23:32;;;;;;;24.50;17.27;;;;;;;;;;5048821;28;20326;-84
2022/03/22 07:25:58;;;;;;;24.50;17.40;;;;;;;;;;5048563;28;20215;-84
2022/03/22 07:28:26;;;;;;;23.80;16.77;;;;;;;;;;5073391;28;20189;-84
2022/03/22 07:30:52;;;;;;;26.13;16.83;;;;;;;;;;5073831;28;20370;-83
2022/03/22 07:33:18;;;;;;;23.07;17.60;;;;;;;;;;5054936;28;20231;-84
2022/03/22 07:35:44;;;;;;;24.47;16.97;;;;;;;;;;5073415;28;20240;-83
2022/03/22 07:38:10;;;;;;;24.23;17.07;;;;;;;;;;5071685;28;20268;-84
2022/03/22 07:40:36;;;;;;;23.90;16.57;;;;;;;;;;5050615;28;20189;-83
2022/03/22 07:43:03;;;;;;;23.50;15.60;;;;;;;;;;5070345;28;20212;-84
2022/03/22 07:45:29;;;;;;;22.03;15.10;;;;;;;;;;5074341;28;20177;-84
2022/03/22 07:47:55;;;;;;;20.70;14.70;;;;;;;;;;5062644;28;20181;-83
2022/03/22 07:53:07;;;;;;;24.83;15.57;;;;;;;;;;5070991;28;20290;-84
2022/03/22 07:55:34;;;;;;;22.77;15.97;;;;;;;;;;5066855;28;20178;-84
2022/03/22 07:58:00;;;;;;;21.10;15.43;;;;;;;;;;5051286;28;20641;-84
2022/03/22 08:00:29;;;;;;;19.80;14.97;;;;;;;;;;5067264;28;20340;-84
2022/03/22 08:03:03;;;;;;;19.20;15.20;;;;;;;;;;5061082;28;20220;-83
2022/03/22 08:05:30;;;;;;;22.40;15.43;;;;;;;;;;5068035;28;20212;-84
2022/03/22 08:07:56;;;;;;;22.13;15.53;;;;;;;;;;5055154;28;20177;-83
2022/03/22 08:10:23;;;;;;;19.63;15.80;;;;;;;;;;5068129;28;20334;-83
2022/03/22 08:12:49;;;;;;;23.53;15.80;;;;;;;;;;5067408;28;20205;-83
2022/03/22 08:15:17;;;;;;;23.70;15.67;;;;;;;;;;5059256;28;20193;-83
2022/03/22 08:17:44;;;;;;;22.50;17.07;;;;;;;;;;5067980;28;20505;-83
2022/03/22 08:20:11;;;;;;;20.93;16.20;;;;;;;;;;5067439;28;20680;-83
2022/03/22 08:22:49;;;;;;;22.80;16.50;;;;;;;;;;5068497;28;20227;-83
2022/03/22 08:25:16;;;;;;;22.07;16.83;;;;;;;;;;5063045;28;20184;-82
2022/03/22 08:27:42;;;;;;;23.37;16.47;;;;;;;;;;5068189;28;20304;-84
2022/03/22 08:30:10;;;;;;;21.90;15.97;;;;;;;;;;5047850;28;20292;-84
2022/03/22 08:32:36;;;;;;;22.27;15.83;;;;;;;;;;5046796;28;20236;-83
2022/03/22 08:35:02;;;;;;;22.53;16.43;;;;;;;;;;5069364;28;20730;-84
2022/03/22 08:37:28;;;;;;;23.93;16.67;;;;;;;;;;5044362;28;20189;-81
2022/03/22 08:39:55;;;;;;;23.50;17.20;;;;;;;;;;5060249;28;20667;-81
2022/03/22 08:42:21;;;;;;;21.73;16.30;;;;;;;;;;5050375;28;20208;-81
2022/03/22 08:44:52;;;;;;;20.83;15.93;;;;;;;;;;5069044;28;20220;-80
2022/03/22 08:47:18;;;;;;;21.27;15.97;;;;;;;;;;5061330;28;20181;-81
2022/03/22 08:49:45;;;;;;;23.10;15.43;;;;;;;;;;5061110;28;20758;-81
2022/03/22 08:52:11;;;;;;;21.00;16.10;;;;;;;;;;5064732;28;20250;-80
2022/03/22 08:54:37;;;;;;;21.30;16.10;;;;;;;;;;5067701;28;20672;-81
2022/03/22 08:57:03;;;;;;;20.50;16.23;;;;;;;;;;5069739;28;20178;-81
2022/03/22 08:59:30;;;;;;;23.73;16.63;;;;;;;;;;5064613;28;20178;-81
2022/03/22 09:01:57;;;;;;;23.20;16.47;;;;;;;;;;5036606;28;20241;-82
2022/03/22 09:07:09;;;;;;;21.37;16.63;;;;;;;;;;5067744;28;20189;-81
2022/03/22 09:09:35;;;;;;;22.40;17.07;;;;;;;;;;5068882;28;20581;-81
2022/03/22 09:12:01;;;;;;;22.77;16.57;;;;;;;;;;5068143;28;20216;-81
2022/03/22 09:14:28;;;;;;;23.30;16.10;;;;;;;;;;5070333;28;20177;-81
2022/03/22 09:16:54;;;;;;;22.97;15.70;;;;;;;;;;5051806;28;20196;-81
2022/03/22 09:19:20;;;;;;;20.60;15.73;;;;;;;;;;5052282;28;20192;-81
2022/03/22 09:21:47;;;;;;;21.27;16.40;;;;;;;;;;5067968;28;20549;-81
2022/03/22 09:24:13;;;;;;;25.63;17.43;;;;;;;;;;5055912;28;20185;-81
2022/03/22 09:26:39;;;;;;;19.67;15.90;;;;;;;;;;5051221;28;20185;-81
2022/03/22 09:29:05;;;;;;;22.53;16.23;;;;;;;;;;5067109;28;20267;-82
2022/03/22 09:31:32;;;;;;;22.07;15.73;;;;;;;;;;5072456;28;20217;-80
2022/03/22 09:33:58;;;;;;;21.93;16.00;;;;;;;;;;5071550;28;20213;-80
2022/03/22 09:36:24;;;;;;;21.07;16.00;;;;;;;;;;5061547;28;20213;-81
2022/03/22 09:38:50;;;;;;;22.20;15.97;;;;;;;;;;5063876;28;20268;-81
2022/03/22 09:41:17;;;;;;;23.73;15.63;;;;;;;;;;5052048;28;20185;-80
2022/03/22 09:43:47;;;;;;;19.43;15.20;;;;;;;;;;5055675;28;20194;-80
2022/03/22 09:46:17;;;;;;;21.57;14.73;;;;;;;;;;5065262;28;20209;-80
2022/03/22 09:48:43;;;;;;;19.40;15.00;;;;;;;;;;5068340;28;20189;-81
2022/03/22 09:53:55;;;;;;;19.63;14.33;;;;;;;;;;5042343;28;20185;-80
2022/03/22 09:56:21;;;;;;;17.90;14.27;;;;;;;;;;5068665;28;20177;-81
2022/03/22 09:58:48;;;;;;;19.43;14.87;;;;;;;;;;5068358;28;20181;-80
2022/03/22 10:01:14;;;;;;;20.93;15.50;;;;;;;;;;5053167;28;20231;-80
2022/03/22 10:03:40;;;;;;;18.90;14.30;;;;;;;;;;5079006;28;20208;-81
2022/03/22 10:06:07;;;;;;;17.30;13.30;;;;;;;;;;5071582;28;20192;-82
2022/03/22 10:08:36;;;;;;;21.03;14.93;;;;;;;;;;5071037;28;20184;-82
2022/03/22 10:11:03;;;;;;;18.60;14.53;;;;;;;;;;5070349;28;20215;-82
2022/03/22 10:13:29;;;;;;;19.40;15.37;;;;;;;;;;5067182;28;20219;-82
2022/03/22 10:16:01;;;;;;;17.63;13.57;;;;;;;;;;5066411;28;20169;-81
2022/03/22 10:18:27;;;;;;;17.60;14.03;;;;;;;;;;5069518;28;20192;-81
2022/03/22 10:21:00;;;;;;;17.63;12.77;;;;;;;;;;5073082;28;20273;-82
2022/03/22 10:23:27;;;;;;;19.27;14.23;;;;;;;;;;5052780;28;20585;-82
2022/03/22 10:26:02;;;;;;;17.13;13.77;;;;;;;;;;5054442;28;20235;-82
2022/03/22 10:28:28;;;;;;;17.37;13.83;;;;;;;;;;5088806;28;20193;-81
2022/03/22 10:30:57;;;;;;;16.90;13.07;;;;;;;;;;5070965;28;20577;-81
2022/03/22 10:33:24;;;;;;;17.67;13.93;;;;;;;;;;5082936;28;20209;-80
2022/03/22 10:35:50;;;;;;;19.23;13.63;;;;;;;;;;5054206;28;20562;-81
2022/03/22 10:38:19;;;;;;;34.10;15.13;;;;;;;;;;5073600;28;20177;-81
2022/03/22 10:40:47;;;;;;;18.13;13.33;;;;;;;;;;5073769;28;20245;-80
2022/03/22 10:43:14;;;;;;;16.13;12.83;;;;;;;;;;5071540;28;20208;-81
2022/03/22 10:45:46;;;;;;;17.07;13.73;;;;;;;;;;5039280;28;20280;-81
2022/03/22 10:48:16;;;;;;;17.00;13.87;;;;;;;;;;5061281;28;20620;-82
2022/03/22 10:50:44;;;;;;;19.43;13.93;;;;;;;;;;5069317;28;20209;-81
2022/03/22 10:53:13;;;;;;;18.70;14.00;;;;;;;;;;5052753;28;20280;-80
2022/03/22 10:55:40;;;;;;;18.53;13.33;;;;;;;;;;5062824;28;20800;-80
2022/03/22 10:58:06;;;;;;;16.33;13.43;;;;;;;;;;5049511;28;20259;-81
2022/03/22 11:00:32;;;;;;;16.57;13.53;;;;;;;;;;5062610;28;20737;-80
2022/03/22 11:02:58;;;;;;;14.40;11.90;;;;;;;;;;5073362;28;20216;-80
2022/03/22 11:05:26;;;;;;;17.00;13.07;;;;;;;;;;5072830;28;20188;-81
2022/03/22 11:07:53;;;;;;;17.40;13.60;;;;;;;;;;5072176;28;20587;-79
2022/03/22 11:10:24;;;;;;;17.30;13.70;;;;;;;;;;5071431;28;20213;-80
2022/03/22 11:12:55;;;;;;;18.40;13.63;;;;;;;;;;5064957;28;20202;-81
2022/03/22 11:15:22;;;;;;;18.47;13.70;;;;;;;;;;5070405;28;20272;-81
2022/03/22 11:17:49;;;;;;;17.37;14.07;;;;;;;;;;5081626;28;21992;-81
2022/03/22 11:20:17;;;;;;;18.90;13.73;;;;;;;;;;5065626;28;20188;-81
2022/03/22 11:22:50;;;;;;;17.97;13.80;;;;;;;;;;5070629;28;20217;-81
2022/03/22 11:25:18;;;;;;;18.40;14.20;;;;;;;;;;5070772;28;20181;-81
2022/03/22 11:27:57;;;;;;;16.33;13.30;;;;;;;;;;5063821;28;20250;-81
2022/03/22 11:30:23;;;;;;;16.10;12.43;;;;;;;;;;5064500;28;20336;-81
2022/03/22 11:35:50;;;;;;;15.43;13.03;;;;;;;;;;5069277;28;20204;-80
2022/03/22 11:38:37;;;;;;;15.30;13.60;;;;;;;;;;5072019;28;20185;-79
2022/03/22 11:43:48;;;;;;;15.70;13.43;;;;;;;;;;5067377;28;20204;-79
2022/03/22 11:46:14;;;;;;;15.77;13.30;;;;;;;;;;5073688;28;20181;-79
2022/03/22 11:48:40;;;;;;;16.67;13.40;;;;;;;;;;5069473;28;20224;-79
2022/03/22 11:51:08;;;;;;;16.00;13.43;;;;;;;;;;5070148;28;20270;-79
2022/03/22 11:53:44;;;;;;;15.80;13.50;;;;;;;;;;5066098;28;20204;-80
2022/03/22 11:56:11;;;;;;;16.83;13.50;;;;;;;;;;5049440;28;20196;-79
2022/03/22 11:58:37;;;;;;;16.73;14.23;;;;;;;;;;5070451;28;20231;-80
2022/03/22 12:01:03;;;;;;;16.27;13.50;;;;;;;;;;5056519;28;20228;-78
2022/03/22 12:03:31;;;;;;;19.07;14.53;;;;;;;;;;5067094;28;20205;-75
2022/03/22 12:05:58;;;;;;;16.73;14.80;;;;;;;;;;5067298;28;20193;-74
2022/03/22 12:08:26;;;;;;;19.63;14.83;;;;;;;;;;5067441;28;20208;-75
2022/03/22 12:10:54;;;;;;;19.43;14.67;;;;;;;;;;5068448;28;20247;-75
2022/03/22 12:13:21;;;;;;;18.13;13.20;;;;;;;;;;5066182;28;20288;-76
2022/03/22 12:15:47;;;;;;;17.93;13.80;;;;;;;;;;5066866;28;20183;-75
2022/03/22 12:18:13;;;;;;;16.77;13.97;;;;;;;;;;5073168;28;20188;-79
2022/03/22 12:20:40;;;;;;;15.80;13.97;;;;;;;;;;5070950;28;20691;-78
2022/03/22 12:23:06;;;;;;;18.77;14.73;;;;;;;;;;5070790;28;20261;-76
2022/03/22 12:25:34;;;;;;;17.83;15.43;;;;;;;;;;5067795;28;20640;-82
2022/03/22 12:28:09;;;;;;;19.50;14.67;;;;;;;;;;5065989;28;20866;-77
2022/03/22 12:30:42;;;;;;;17.53;14.40;;;;;;;;;;5069010;28;22346;-77
2022/03/22 12:33:11;;;;;;;16.07;14.37;;;;;;;;;;5059097;28;20331;-78
2022/03/22 12:35:37;;;;;;;15.67;13.97;;;;;;;;;;5032630;28;20573;-78
2022/03/22 12:38:04;;;;;;;16.40;12.70;;;;;;;;;;5066958;28;20231;-78
2022/03/22 12:40:31;;;;;;;15.40;13.90;;;;;;;;;;5063913;28;20197;-77
2022/03/22 12:42:57;;;;;;;17.43;14.07;;;;;;;;;;5054410;28;20205;-78
2022/03/22 12:45:24;;;;;;;18.90;14.87;;;;;;;;;;5065020;28;20191;-77
2022/03/22 12:47:52;;;;;;;18.63;14.60;;;;;;;;;;5065747;28;20191;-78
2022/03/22 12:50:20;;;;;;;18.00;14.93;;;;;;;;;;5066989;28;20660;-77
2022/03/22 12:52:47;;;;;;;15.97;13.80;;;;;;;;;;5066825;28;20213;-77
2022/03/22 12:55:14;;;;;;;15.47;13.87;;;;;;;;;;5072999;28;20279;-79
2022/03/22 12:57:44;;;;;;;17.60;15.10;;;;;;;;;;5066909;28;20557;-77
2022/03/22 13:00:10;;;;;;;18.70;14.53;;;;;;;;;;5066848;28;20218;-77
2022/03/22 13:02:40;;;;;;;17.70;14.97;;;;;;;;;;5050914;28;20201;-78
2022/03/22 13:05:06;;;;;;;15.37;13.87;;;;;;;;;;5068526;28;20191;-77
2022/03/22 13:07:36;;;;;;;15.50;14.00;;;;;;;;;;5058140;28;20535;-78
2022/03/22 13:12:47;;;;;;;17.50;15.47;;;;;;;;;;5062450;28;20218;-78
2022/03/22 13:15:14;;;;;;;15.83;14.23;;;;;;;;;;5057144;28;20240;-77
2022/03/22 13:17:43;;;;;;;15.60;13.90;;;;;;;;;;5066719;28;20181;-77
2022/03/22 13:20:15;;;;;;;16.43;14.67;;;;;;;;;;5045079;28;20554;-78
2022/03/22 13:22:50;;;;;;;15.60;14.10;;;;;;;;;;5060945;28;20292;-78
2022/03/22 13:25:18;;;;;;;16.50;14.43;;;;;;;;;;5063507;28;20252;-78
2022/03/22 13:27:52;;;;;;;16.17;14.47;;;;;;;;;;5056200;28;20189;-77
2022/03/22 13:30:19;;;;;;;15.37;13.87;;;;;;;;;;5061703;28;20216;-77
2022/03/22 13:32:46;;;;;;;16.43;13.70;;;;;;;;;;5059029;28;20201;-77
2022/03/22 13:35:13;;;;;;;17.27;15.47;;;;;;;;;;5059802;28;20690;-78
2022/03/22 13:37:57;;;;;;;16.53;14.77;;;;;;;;;;5067684;28;20181;-78
2022/03/22 13:40:23;;;;;;;16.50;14.80;;;;;;;;;;5074514;28;20190;-78
2022/03/22 13:42:59;;;;;;;15.40;14.00;;;;;;;;;;5067192;28;20207;-80
2022/03/22 13:45:26;;;;;;;16.43;14.83;;;;;;;;;;5065101;28;20285;-78
2022/03/22 13:47:52;;;;;;;15.87;14.27;;;;;;;;;;5068028;28;20689;-80
2022/03/22 13:50:20;;;;;;;15.80;14.10;;;;;;;;;;5056950;28;20272;-82
2022/03/22 13:53:03;;;;;;;15.63;14.00;;;;;;;;;;5061968;28;20275;-82
2022/03/22 13:55:29;;;;;;;15.93;14.33;;;;;;;;;;5080232;28;20659;-81
2022/03/22 13:57:57;;;;;;;16.77;14.70;;;;;;;;;;5063785;28;20183;-80
2022/03/22 14:00:23;;;;;;;15.53;14.03;;;;;;;;;;5064994;28;20204;-81
2022/03/22 14:02:52;;;;;;;15.23;13.53;;;;;;;;;;5066726;28;20212;-82
2022/03/22 14:05:18;;;;;;;16.50;14.80;;;;;;;;;;5068448;28;20188;-81
2022/03/22 14:07:51;;;;;;;16.30;14.70;;;;;;;;;;5068403;28;20250;-81
2022/03/22 14:10:18;;;;;;;16.63;14.90;;;;;;;;;;5071264;28;20214;-81
2022/03/22 14:12:45;;;;;;;17.17;15.37;;;;;;;;;;5071444;28;21004;-80
2022/03/22 14:15:12;;;;;;;16.10;14.40;;;;;;;;;;5068634;28;20568;-81
2022/03/22 14:17:38;;;;;;;15.07;13.57;;;;;;;;;;5060172;28;20718;-81
2022/03/22 14:20:06;;;;;;;15.80;14.30;;;;;;;;;;5060597;28;20835;-80
2022/03/22 14:22:33;;;;;;;15.30;13.70;;;;;;;;;;5053039;28;20241;-80
2022/03/22 14:25:00;;;;;;;18.30;14.13;;;;;;;;;;5067407;28;20228;-86
2022/03/22 14:27:26;;;;;;;16.80;15.20;;;;;;;;;;5067880;28;20294;-81
2022/03/22 14:29:53;;;;;;;17.27;15.57;;;;;;;;;;5078507;28;20798;-80
2022/03/22 14:32:20;;;;;;;16.00;14.53;;;;;;;;;;5081681;28;20241;-80
2022/03/22 14:37:31;;;;;;;16.23;14.63;;;;;;;;;;5069192;28;20196;-81
2022/03/22 14:39:57;;;;;;;16.20;14.50;;;;;;;;;;5075853;28;20257;-81
2022/03/22 14:42:24;;;;;;;14.63;13.27;;;;;;;;;;5064069;28;20207;-83
2022/03/22 14:44:51;;;;;;;16.60;14.80;;;;;;;;;;5075818;28;20200;-82
2022/03/22 14:47:17;;;;;;;15.23;13.87;;;;;;;;;;5068531;28;20235;-82
2022/03/22 14:49:43;;;;;;;15.07;13.50;;;;;;;;;;5075078;28;20611;-84
2022/03/22 14:54:54;;;;;;;15.77;14.23;;;;;;;;;;5072727;28;20273;-84
2022/03/22 15:00:07;;;;;;;16.07;14.47;;;;;;;;;;5049927;28;20844;-80
2022/03/22 15:02:39;;;;;;;15.13;13.63;;;;;;;;;;5068696;28;20258;-82
2022/03/22 15:05:31;;;;;;;16.83;15.03;;;;;;;;;;5063047;28;20181;-84
2022/03/22 15:07:54;;;;;;;17.57;14.90;;;;;;;;;;5073313;28;20198;-83
2022/03/22 15:10:22;;;;;;;15.93;14.33;;;;;;;;;;5074247;28;20232;-84
2022/03/22 15:12:50;;;;;;;16.23;14.60;;;;;;;;;;5037275;28;20599;-83
2022/03/22 15:15:17;;;;;;;15.87;14.17;;;;;;;;;;5070157;28;20556;-84